createdAt,value
2019-04-11T00:03:39.644Z,58.60
2019-04-11T00:08:41.907Z,58.68
2019-04-11T00:13:43.174Z,58.61
2019-04-11T00:18:44.934Z,58.68
2019-04-11T00:23:46.117Z,58.69
2019-04-11T00:28:47.957Z,58.30
2019-04-11T00:33:49.393Z,58.23
2019-04-11T00:38:50.696Z,58.18
2019-04-11T00:43:52.765Z,58.29
2019-04-11T00:48:54.475Z,57.80
2019-04-11T00:53:55.440Z,57.89
2019-04-11T00:58:56.741Z,57.51
2019-04-11T01:03:59.109Z,57.56
2019-04-11T01:09:00.013Z,57.80
2019-04-11T01:14:01.572Z,57.81
2019-04-11T01:19:02.622Z,57.94
2019-04-11T01:24:03.792Z,57.78
2019-04-11T01:29:04.999Z,57.38
2019-04-11T01:34:06.496Z,57.45
2019-04-11T01:39:13.816Z,57.97
2019-04-11T01:44:15.139Z,56.81
2019-04-11T01:49:17.318Z,56.34
2019-04-11T01:54:19.549Z,56.66
2019-04-11T01:59:19.989Z,55.83
2019-04-11T02:04:23.774Z,54.40
2019-04-11T02:09:24.671Z,54.79
2019-04-11T02:14:25.984Z,54.00
2019-04-11T02:19:28.102Z,53.95
2019-04-11T02:24:36.611Z,54.09
2019-04-11T02:29:37.916Z,53.80
2019-04-11T02:34:40.287Z,52.96
2019-04-11T02:39:42.711Z,52.24
2019-04-11T02:44:59.590Z,51.95
2019-04-11T02:49:45.657Z,51.58
2019-04-11T02:54:47.386Z,52.24
2019-04-11T02:59:49.041Z,51.83
2019-04-11T03:04:50.968Z,51.30
2019-04-11T03:09:51.080Z,51.63
2019-04-11T03:15:09.317Z,51.96
2019-04-11T03:20:08.924Z,50.91
2019-04-11T03:24:55.660Z,51.45
2019-04-11T03:29:58.098Z,50.79
2019-04-11T03:35:51.011Z,51.05
2019-04-11T03:40:23.809Z,51.16
2019-04-11T03:45:20.994Z,51.13
2019-04-11T03:50:08.531Z,52.14
2019-04-11T03:55:06.737Z,52.49
2019-04-11T04:00:06.327Z,51.77
2019-04-11T04:05:08.875Z,51.67
2019-04-11T04:10:12.615Z,50.71
2019-04-11T04:15:32.562Z,51.83
2019-04-11T04:25:49.349Z,52.21
2019-04-11T04:30:51.670Z,51.34
2019-04-11T04:35:52.358Z,50.89
2019-04-11T04:41:07.334Z,50.01
2019-04-11T04:46:13.549Z,50.22
2019-04-11T04:51:01.646Z,50.12
2019-04-11T04:56:00.289Z,49.74
2019-04-11T05:01:01.387Z,49.79
2019-04-11T05:06:03.369Z,49.49
2019-04-11T05:11:04.503Z,49.65
2019-04-11T05:16:16.414Z,49.50
2019-04-11T05:21:06.065Z,49.79
2019-04-11T05:26:07.455Z,50.94
2019-04-11T05:31:10.095Z,50.04
2019-04-11T05:36:10.245Z,50.41
2019-04-11T05:41:13.498Z,50.09
2019-04-11T05:46:28.587Z,49.71
2019-04-11T05:51:18.565Z,50.07
2019-04-11T05:56:16.856Z,49.40
2019-04-11T06:01:20.283Z,49.33
2019-04-11T06:06:24.686Z,49.60
2019-04-11T06:11:34.825Z,49.76
2019-04-11T06:16:44.887Z,49.66
2019-04-11T06:21:44.284Z,50.18
2019-04-11T06:26:49.131Z,50.06
2019-04-11T06:31:52.701Z,50.36
2019-04-11T06:36:58.109Z,50.27
2019-04-11T06:42:04.205Z,50.37
2019-04-11T06:47:18.808Z,49.45
2019-04-11T06:52:24.413Z,49.58
2019-04-11T06:57:26.696Z,49.79
2019-04-11T07:02:28.052Z,49.64
2019-04-11T07:07:34.325Z,49.50
2019-04-11T07:12:38.630Z,49.77
2019-04-11T07:17:48.111Z,50.19
2019-04-11T07:22:57.521Z,49.94
2019-04-11T07:28:05.939Z,49.79
2019-04-11T07:33:16.517Z,49.54
2019-04-11T07:38:23.449Z,49.29
2019-04-11T07:43:24.993Z,49.61
2019-04-11T07:48:27.231Z,50.06
2019-04-11T07:53:28.559Z,50.35
2019-04-11T07:58:31.370Z,50.45
2019-04-11T08:03:40.021Z,51.58
2019-04-11T08:08:51.395Z,51.15
2019-04-11T08:14:08.403Z,52.12
2019-04-11T08:24:50.972Z,51.63
2019-04-11T08:29:52.010Z,50.56
2019-04-11T08:34:55.843Z,50.62
2019-04-11T08:39:59.678Z,50.92
2019-04-11T08:45:02.352Z,50.45
2019-04-11T08:50:07.499Z,50.86
2019-04-11T08:55:10.343Z,50.46
2019-04-11T09:00:37.987Z,50.45
2019-04-11T09:05:53.312Z,49.58
2019-04-11T09:10:53.610Z,49.11
2019-04-11T09:16:02.133Z,49.46
2019-04-11T09:21:11.866Z,49.39
2019-04-11T09:31:45.770Z,49.26
2019-04-11T09:37:03.170Z,49.11
2019-04-11T09:47:40.567Z,47.69
2019-04-11T09:52:42.869Z,47.32
2019-04-11T09:57:48.404Z,46.83
2019-04-11T10:02:53.078Z,48.38
2019-04-11T10:08:02.277Z,47.96
2019-04-11T10:13:25.022Z,47.31
2019-04-11T10:18:37.278Z,48.01
2019-04-11T10:23:34.926Z,48.95
2019-04-11T10:28:49.665Z,48.27
2019-04-11T10:34:04.877Z,47.33
2019-04-11T10:39:29.298Z,46.91
2019-04-11T10:44:40.362Z,47.13
2019-04-11T10:49:46.401Z,47.75
2019-04-11T10:54:57.573Z,47.19
2019-04-11T11:05:47.161Z,47.81
2019-04-11T11:10:47.970Z,46.95
2019-04-11T11:15:49.802Z,46.47
2019-04-11T11:20:55.145Z,46.89
2019-04-11T11:31:32.034Z,47.18
2019-04-11T11:36:39.584Z,46.00
2019-04-11T11:41:48.869Z,45.75
2019-04-11T11:47:06.850Z,43.91
2019-04-11T11:52:22.852Z,46.11
2019-04-11T11:57:24.242Z,43.71
2019-04-11T12:02:26.380Z,43.85
2019-04-11T12:07:28.559Z,43.20
2019-04-11T12:12:42.763Z,43.29
2019-04-11T12:17:50.348Z,42.93
2019-04-11T12:22:53.691Z,43.95
2019-04-11T12:33:35.266Z,44.11
2019-04-11T12:38:54.663Z,44.97
2019-04-11T12:43:59.021Z,43.40
2019-04-11T12:54:32.737Z,43.23
2019-04-11T12:59:36.618Z,42.51
2019-04-11T13:04:38.010Z,43.47
2019-04-11T13:09:43.850Z,43.58
2019-04-11T13:20:19.890Z,42.33
2019-04-11T13:30:57.804Z,42.03
2019-04-11T13:36:02.409Z,42.48
2019-04-11T13:41:20.297Z,42.65
2019-04-11T13:51:48.495Z,43.65
2019-04-11T13:56:54.803Z,43.53
2019-04-11T14:07:33.977Z,44.01
2019-04-11T14:12:44.087Z,43.40
2019-04-11T14:17:48.404Z,43.13
2019-04-11T14:22:52.582Z,43.29
2019-04-11T14:27:59.940Z,43.00
2019-04-11T14:33:01.393Z,43.06
2019-04-11T14:38:04.639Z,43.06
2019-04-11T14:43:09.893Z,42.47
2019-04-11T14:54:04.163Z,43.03
2019-04-11T14:59:10.571Z,42.64
2019-04-11T15:04:18.040Z,42.77
2019-04-11T15:09:22.745Z,43.08
2019-04-11T15:14:27.964Z,42.79
2019-04-11T15:19:29.296Z,41.78
2019-04-11T15:24:31.387Z,40.76
2019-04-11T15:29:33.578Z,41.98
2019-04-11T15:34:37.938Z,41.59
2019-04-11T15:39:45.538Z,41.76
2019-04-11T15:44:53.120Z,41.89
2019-04-11T15:50:08.649Z,42.07
2019-04-11T15:55:16.242Z,42.57
2019-04-11T16:00:20.624Z,42.04
2019-04-11T16:11:14.317Z,42.99
2019-04-11T16:16:30.587Z,42.49
2019-04-11T16:21:35.681Z,42.34
2019-04-11T16:26:43.316Z,42.00
2019-04-11T16:31:45.414Z,42.26
2019-04-11T16:36:50.433Z,42.27
2019-04-11T16:42:02.744Z,42.78
2019-04-11T16:47:08.282Z,42.42
2019-04-11T16:52:15.904Z,42.86
2019-04-11T16:57:24.664Z,42.52
2019-04-11T17:02:28.905Z,43.08
2019-04-11T17:12:59.912Z,43.32
2019-04-11T17:18:03.159Z,42.87
2019-04-11T17:23:04.340Z,43.05
2019-04-11T17:28:05.738Z,42.88
2019-04-11T17:33:07.947Z,43.51
2019-04-11T17:38:15.688Z,43.45
2019-04-11T17:43:17.080Z,44.02
2019-04-11T17:48:19.528Z,43.77
2019-04-11T17:53:26.486Z,44.05
2019-04-11T17:58:27.915Z,43.64
2019-04-11T18:03:29.476Z,43.85
2019-04-11T18:08:30.835Z,44.17
2019-04-11T18:13:32.204Z,43.82
2019-04-11T18:18:35.161Z,43.82
2019-04-11T18:23:35.994Z,44.34
2019-04-11T18:28:36.290Z,44.10
2019-04-11T18:33:40.586Z,44.22
2019-04-11T18:38:42.074Z,44.07
2019-04-11T18:43:47.091Z,44.44
2019-04-11T18:48:48.673Z,43.65
2019-04-11T18:53:50.045Z,42.75
2019-04-11T18:58:51.461Z,42.95
2019-04-11T19:03:53.839Z,42.64
2019-04-11T19:09:03.758Z,42.63
2019-04-11T19:14:05.271Z,42.56
2019-04-11T19:19:07.771Z,42.32
2019-04-11T19:24:13.136Z,41.79
2019-04-11T19:29:18.944Z,41.42
2019-04-11T19:34:20.355Z,41.62
2019-04-11T19:39:25.876Z,41.34
2019-04-11T19:44:28.060Z,41.17
2019-04-11T19:49:29.663Z,41.74
2019-04-11T19:54:32.784Z,41.24
2019-04-11T19:59:32.204Z,40.80
2019-04-11T20:04:36.540Z,40.46
2019-04-11T20:09:47.426Z,40.36
2019-04-11T20:14:49.651Z,40.70
2019-04-11T20:20:01.146Z,40.88
2019-04-11T20:24:57.076Z,40.83
2019-04-11T20:30:03.476Z,39.92
2019-04-11T20:35:09.421Z,40.19
2019-04-11T20:40:07.681Z,39.88
2019-04-11T20:45:12.020Z,39.95
2019-04-11T20:50:19.380Z,40.64
2019-04-11T20:55:26.466Z,40.19
2019-04-11T21:00:27.852Z,40.32
2019-04-11T21:05:30.922Z,39.93
2019-04-11T21:10:31.889Z,39.95
2019-04-11T21:15:33.850Z,40.28
2019-04-11T21:20:35.215Z,40.21
2019-04-11T21:25:37.203Z,40.38
2019-04-11T21:30:38.578Z,40.54
2019-04-11T21:35:39.920Z,40.44
2019-04-11T21:40:41.273Z,40.55
2019-04-11T21:45:42.661Z,40.34
2019-04-11T21:50:44.001Z,40.53
2019-04-11T21:55:47.848Z,40.49
2019-04-11T22:00:46.753Z,40.62
2019-04-11T22:05:59.601Z,41.18
2019-04-11T22:10:57.834Z,41.19
2019-04-11T22:15:59.881Z,41.03
2019-04-11T22:21:01.211Z,41.14
2019-04-11T22:26:02.623Z,41.40
2019-04-11T22:31:03.962Z,41.26
2019-04-11T22:36:05.328Z,41.24
2019-04-11T22:41:06.773Z,41.44
2019-04-11T22:46:12.010Z,42.00
2019-04-11T22:51:11.276Z,42.01
2019-04-11T22:56:12.397Z,42.29
2019-04-11T23:01:14.001Z,41.94
2019-04-11T23:06:14.880Z,42.16
2019-04-11T23:11:15.898Z,42.46
2019-04-11T23:16:17.237Z,42.42
2019-04-11T23:21:18.673Z,42.72
2019-04-11T23:26:20.869Z,43.15
2019-04-11T23:31:22.240Z,43.32
2019-04-11T23:36:23.615Z,43.50
2019-04-11T23:41:25.014Z,43.53
2019-04-11T23:46:26.441Z,43.88
2019-04-11T23:51:27.837Z,44.00
2019-04-11T23:56:30.580Z,43.92
